You are not logged in, Click here to log in
ICAO: LOWI Country: 奧地利西部最大的國際機場,位於蒂羅爾州,坐落在距離因斯布魯克市中心約2.5英里外的郊區
Latitude: 47.2602 Longitude: 11.344
Total Arrivals: 6 Total Departures: 3
Latest Arrival: FS01 (EDDC-LOWI)CHU. CHUHAO Latest Departure: OS902 (LOWI-LOWW)Arthur. Kung
Scenery:
METAR : LOWI 231950Z 00000KT 9999 FEW020 BKN110 19/17 Q1024 NOSIG

因斯布魯克機場INN